createdAt,value
2019-04-11T00:00:41.766Z,8.37
2019-04-11T00:03:13.349Z,7.73
2019-04-11T00:05:45.323Z,8.80
2019-04-11T00:08:17.489Z,8.60
2019-04-11T00:10:49.180Z,8.37
2019-04-11T00:13:24.358Z,8.30
2019-04-11T00:15:52.997Z,8.50
2019-04-11T00:18:24.966Z,8.27
2019-04-11T00:20:56.287Z,7.97
2019-04-11T00:23:28.363Z,8.30
2019-04-11T00:26:00.060Z,8.83
2019-04-11T00:28:31.970Z,9.23
2019-04-11T00:31:02.770Z,8.43
2019-04-11T00:33:34.055Z,9.33
2019-04-11T00:36:06.230Z,8.40
2019-04-11T00:38:38.253Z,8.73
2019-04-11T00:41:09.986Z,9.10
2019-04-11T00:43:43.803Z,9.23
2019-04-11T00:46:14.439Z,9.20
2019-04-11T00:48:46.107Z,9.33
2019-04-11T00:51:17.651Z,8.50
2019-04-11T00:53:49.965Z,8.87
2019-04-11T00:56:21.165Z,8.67
2019-04-11T00:58:52.098Z,8.20
2019-04-11T01:01:23.956Z,8.63
2019-04-11T01:03:55.789Z,8.80
2019-04-11T01:06:27.972Z,9.00
2019-04-11T01:09:00.007Z,8.60
2019-04-11T01:11:32.048Z,8.77
2019-04-11T01:14:03.612Z,8.40
2019-04-11T01:16:40.961Z,9.37
2019-04-11T01:19:12.079Z,8.70
2019-04-11T01:21:42.999Z,8.47
2019-04-11T01:24:15.649Z,8.80
2019-04-11T01:26:47.599Z,9.27
2019-04-11T01:29:19.660Z,7.90
2019-04-11T01:31:54.212Z,8.53
2019-04-11T01:34:25.294Z,8.17
2019-04-11T01:36:57.469Z,8.63
2019-04-11T01:39:35.471Z,9.10
2019-04-11T01:42:07.003Z,9.10
2019-04-11T01:44:38.879Z,8.07
2019-04-11T01:47:12.850Z,8.60
2019-04-11T01:49:44.102Z,9.50
2019-04-11T01:52:15.115Z,9.20
2019-04-11T01:54:46.056Z,10.10
2019-04-11T01:57:18.004Z,10.80
2019-04-11T01:59:48.914Z,10.53
2019-04-11T02:02:28.763Z,11.43
2019-04-11T02:05:23.412Z,10.83
2019-04-11T02:07:55.307Z,11.33
2019-04-11T02:10:26.552Z,11.97
2019-04-11T02:12:57.666Z,11.80
2019-04-11T02:15:28.942Z,11.47
2019-04-11T02:18:01.287Z,10.30
2019-04-11T02:20:33.316Z,10.53
2019-04-11T02:23:10.903Z,11.50
2019-04-11T02:25:50.757Z,11.03
2019-04-11T02:28:22.485Z,12.90
2019-04-11T02:30:56.251Z,11.87
2019-04-11T02:33:27.718Z,12.03
2019-04-11T02:36:00.703Z,11.13
2019-04-11T02:38:32.622Z,11.23
2019-04-11T02:41:05.945Z,12.40
2019-04-11T02:43:40.107Z,12.53
2019-04-11T02:46:19.746Z,13.13
2019-04-11T02:48:42.720Z,12.50
2019-04-11T02:51:14.667Z,11.70
2019-04-11T02:53:47.282Z,11.03
2019-04-11T02:56:19.342Z,11.53
2019-04-11T02:58:52.285Z,11.37
2019-04-11T03:01:24.231Z,9.20
2019-04-11T03:03:58.815Z,11.03
2019-04-11T03:06:29.114Z,10.07
2019-04-11T03:09:00.197Z,9.60
2019-04-11T03:11:32.574Z,9.20
2019-04-11T03:14:04.078Z,9.33
2019-04-11T03:16:46.108Z,8.80
2019-04-11T03:19:21.228Z,8.93
2019-04-11T03:21:43.704Z,9.00
2019-04-11T03:24:13.213Z,9.37
2019-04-11T03:26:45.765Z,9.23
2019-04-11T03:29:17.738Z,8.60
2019-04-11T03:32:33.742Z,8.60
2019-04-11T03:35:13.593Z,8.53
2019-04-11T03:39:52.920Z,8.73
2019-04-11T03:42:17.419Z,8.40
2019-04-11T03:44:38.333Z,8.53
2019-04-11T03:47:21.930Z,8.60
2019-04-11T03:49:46.761Z,9.20
2019-04-11T03:52:12.286Z,8.77
2019-04-11T03:54:43.393Z,9.00
2019-04-11T03:57:15.669Z,9.00
2019-04-11T03:59:47.950Z,8.67
2019-04-11T04:02:21.984Z,9.30
2019-04-11T04:04:53.942Z,8.83
2019-04-11T04:07:25.213Z,8.60
2019-04-11T04:09:56.407Z,8.73
2019-04-11T04:12:29.293Z,8.63
2019-04-11T04:15:41.026Z,8.33
2019-04-11T04:18:15.018Z,8.57
2019-04-11T04:21:10.816Z,8.87
2019-04-11T04:23:46.160Z,8.80
2019-04-11T04:26:18.990Z,8.97
2019-04-11T04:28:51.293Z,8.80
2019-04-11T04:31:22.688Z,9.13
2019-04-11T04:33:53.562Z,8.93
2019-04-11T04:36:26.768Z,9.40
2019-04-11T04:38:59.282Z,9.10
2019-04-11T04:41:39.361Z,8.83
2019-04-11T04:44:06.470Z,9.53
2019-04-11T04:46:52.730Z,9.37
2019-04-11T04:49:11.163Z,9.60
2019-04-11T04:51:43.712Z,9.43
2019-04-11T04:54:16.269Z,9.37
2019-04-11T04:56:47.391Z,8.90
2019-04-11T04:59:20.080Z,9.40
2019-04-11T05:01:53.245Z,9.40
2019-04-11T05:04:24.921Z,9.43
2019-04-11T05:06:55.908Z,10.17
2019-04-11T05:09:26.936Z,9.80
2019-04-11T05:11:57.717Z,9.23
2019-04-11T05:14:29.562Z,9.60
2019-04-11T05:17:02.367Z,10.80
2019-04-11T05:19:34.108Z,9.50
2019-04-11T05:22:06.563Z,10.17
2019-04-11T05:24:37.254Z,10.77
2019-04-11T05:27:08.357Z,10.00
2019-04-11T05:29:41.696Z,10.07
2019-04-11T05:32:13.365Z,10.00
2019-04-11T05:34:45.426Z,9.70
2019-04-11T05:37:16.401Z,9.83
2019-04-11T05:39:48.373Z,9.80
2019-04-11T05:42:24.112Z,9.80
2019-04-11T05:44:52.907Z,9.20
2019-04-11T05:47:23.829Z,10.37
2019-04-11T05:50:22.341Z,9.97
2019-04-11T05:53:11.492Z,9.30
2019-04-11T05:56:03.578Z,9.67
2019-04-11T05:58:35.267Z,9.97
2019-04-11T06:01:22.291Z,9.97
2019-04-11T06:03:55.600Z,9.70
2019-04-11T06:06:36.123Z,9.80
2019-04-11T06:09:10.380Z,9.57
2019-04-11T06:12:09.492Z,10.50
2019-04-11T06:14:52.446Z,10.00
2019-04-11T06:17:24.623Z,9.53
2019-04-11T06:20:14.356Z,9.97
2019-04-11T06:22:52.601Z,10.40
2019-04-11T06:25:46.215Z,9.97
2019-04-11T06:28:20.574Z,9.13
2019-04-11T06:31:09.683Z,10.70
2019-04-11T06:33:49.087Z,10.80
2019-04-11T06:36:37.532Z,10.53
2019-04-11T06:39:16.299Z,10.40
2019-04-11T06:42:15.314Z,9.73
2019-04-11T06:45:04.144Z,10.80
2019-04-11T06:47:45.773Z,9.50
2019-04-11T06:50:34.032Z,10.23
2019-04-11T06:53:05.151Z,10.00
2019-04-11T06:55:53.572Z,10.00
2019-04-11T06:58:29.741Z,10.07
2019-04-11T07:01:07.777Z,10.40
2019-04-11T07:03:44.882Z,9.60
2019-04-11T07:06:22.094Z,10.47
2019-04-11T07:09:18.354Z,10.23
2019-04-11T07:11:52.732Z,9.87
2019-04-11T07:14:39.872Z,10.27
2019-04-11T07:17:29.678Z,9.70
2019-04-11T07:20:10.939Z,9.37
2019-04-11T07:22:59.538Z,9.13
2019-04-11T07:25:43.066Z,9.70
2019-04-11T07:28:21.170Z,9.60
2019-04-11T07:31:10.798Z,8.97
2019-04-11T07:34:12.061Z,9.73
2019-04-11T07:37:02.431Z,10.03
2019-04-11T07:39:51.668Z,9.90
2019-04-11T07:42:41.088Z,9.80
2019-04-11T07:45:17.943Z,10.43
2019-04-11T07:47:56.464Z,9.87
2019-04-11T07:50:27.720Z,10.53
2019-04-11T07:53:01.977Z,11.10
2019-04-11T07:55:34.158Z,10.30
2019-04-11T07:58:43.698Z,10.37
2019-04-11T08:01:42.524Z,11.00
2019-04-11T08:04:34.909Z,10.27
2019-04-11T08:07:19.926Z,10.33
2019-04-11T08:10:03.718Z,10.40
2019-04-11T08:12:35.030Z,9.90
2019-04-11T08:15:31.488Z,10.57
2019-04-11T08:18:08.257Z,9.87
2019-04-11T08:21:08.006Z,10.03
2019-04-11T08:23:40.193Z,10.00
2019-04-11T08:26:40.796Z,10.43
2019-04-11T08:29:14.945Z,10.33
2019-04-11T08:32:02.633Z,9.77
2019-04-11T08:34:38.000Z,9.40
2019-04-11T08:37:27.492Z,9.40
2019-04-11T08:39:59.595Z,9.07
2019-04-11T08:43:02.521Z,8.67
2019-04-11T08:45:34.302Z,9.13
2019-04-11T08:48:06.573Z,9.10
2019-04-11T08:50:40.802Z,8.97
2019-04-11T08:53:43.305Z,9.23
2019-04-11T08:56:14.699Z,8.90
2019-04-11T08:59:46.096Z,9.83
2019-04-11T09:02:20.836Z,9.13
2019-04-11T09:05:11.970Z,8.90
2019-04-11T09:07:43.572Z,8.97
2019-04-11T09:10:32.210Z,9.00
2019-04-11T09:13:09.362Z,8.97
2019-04-11T09:15:57.834Z,8.63
2019-04-11T09:18:30.259Z,8.63
2019-04-11T09:21:36.220Z,8.57
2019-04-11T09:24:15.222Z,8.50
2019-04-11T09:27:04.500Z,8.47
2019-04-11T09:29:38.235Z,7.73
2019-04-11T09:32:26.940Z,7.63
2019-04-11T09:35:06.167Z,8.17
2019-04-11T09:37:40.043Z,8.00
2019-04-11T09:40:30.228Z,7.37
2019-04-11T09:43:35.861Z,7.70
2019-04-11T09:46:34.512Z,7.77
2019-04-11T09:49:31.076Z,7.30
2019-04-11T09:52:07.307Z,7.33
2019-04-11T09:55:01.293Z,7.10
2019-04-11T09:57:37.998Z,7.13
2019-04-11T10:00:28.879Z,6.70
2019-04-11T10:03:19.647Z,6.97
2019-04-11T10:06:07.260Z,6.80
2019-04-11T10:08:44.352Z,7.10
2019-04-11T10:11:32.858Z,6.87
2019-04-11T10:14:11.785Z,7.20
2019-04-11T10:17:08.703Z,6.77
2019-04-11T10:19:56.093Z,6.70
2019-04-11T10:22:49.177Z,6.17
2019-04-11T10:25:28.257Z,7.07
2019-04-11T10:28:29.831Z,7.00
2019-04-11T10:31:12.615Z,6.77
2019-04-11T10:33:51.122Z,6.87
2019-04-11T10:36:45.282Z,6.67
2019-04-11T10:39:33.659Z,7.00
2019-04-11T10:42:08.504Z,6.50
2019-04-11T10:45:06.587Z,5.83
2019-04-11T10:47:38.748Z,6.23
2019-04-11T10:50:17.533Z,6.50
2019-04-11T10:52:52.900Z,6.10
2019-04-11T10:55:41.997Z,6.63
2019-04-11T10:58:16.857Z,6.40
2019-04-11T11:01:07.543Z,6.30
2019-04-11T11:03:57.572Z,6.27
2019-04-11T11:06:29.595Z,5.87
2019-04-11T11:09:08.027Z,6.13
2019-04-11T11:11:44.566Z,6.10
2019-04-11T11:14:35.025Z,5.60
2019-04-11T11:17:16.061Z,5.60
2019-04-11T11:20:22.360Z,5.33
2019-04-11T11:23:10.958Z,5.87
2019-04-11T11:25:48.307Z,5.63
2019-04-11T11:28:18.710Z,6.10
2019-04-11T11:31:14.115Z,6.00
2019-04-11T11:33:45.222Z,5.87
2019-04-11T11:36:37.482Z,5.60
2019-04-11T11:39:20.158Z,5.67
2019-04-11T11:42:10.233Z,6.13
2019-04-11T11:44:53.143Z,5.50
2019-04-11T11:47:42.005Z,5.33
2019-04-11T11:50:18.764Z,5.67
2019-04-11T11:53:13.176Z,6.23
2019-04-11T11:55:43.269Z,5.77
2019-04-11T11:58:43.488Z,6.00
2019-04-11T12:01:15.615Z,6.23
2019-04-11T12:04:24.287Z,6.03
2019-04-11T12:07:03.335Z,6.23
2019-04-11T12:09:48.968Z,6.10
2019-04-11T12:12:24.449Z,6.03
2019-04-11T12:15:22.323Z,6.63
2019-04-11T12:18:17.195Z,6.30
2019-04-11T12:20:54.728Z,6.47
2019-04-11T12:23:53.915Z,6.43
2019-04-11T12:26:16.803Z,5.43
2019-04-11T12:29:12.137Z,6.43
2019-04-11T12:31:46.176Z,5.70
2019-04-11T12:34:32.991Z,5.80
2019-04-11T12:37:06.713Z,6.63
2019-04-11T12:39:59.250Z,7.00
2019-04-11T12:42:33.281Z,6.40
2019-04-11T12:45:38.621Z,6.57
2019-04-11T12:48:11.953Z,6.00
2019-04-11T12:51:07.382Z,6.03
2019-04-11T12:53:39.459Z,6.30
2019-04-11T12:56:32.110Z,6.30
2019-04-11T12:59:24.736Z,6.70
2019-04-11T13:02:14.517Z,6.37
2019-04-11T13:04:46.399Z,6.53
2019-04-11T13:07:36.260Z,6.57
2019-04-11T13:10:19.511Z,6.20
2019-04-11T13:13:09.960Z,5.87
2019-04-11T13:15:42.553Z,6.13
2019-04-11T13:18:50.381Z,6.33
2019-04-11T13:21:24.991Z,6.70
2019-04-11T13:24:14.774Z,6.20
2019-04-11T13:27:03.009Z,6.03
2019-04-11T13:30:02.395Z,6.40
2019-04-11T13:32:46.438Z,6.23
2019-04-11T13:35:36.371Z,6.00
2019-04-11T13:38:09.637Z,5.90
2019-04-11T13:41:02.260Z,5.90
2019-04-11T13:43:52.430Z,5.73
2019-04-11T13:46:45.187Z,5.97
2019-04-11T13:49:56.221Z,6.57
2019-04-11T13:52:52.154Z,6.03
2019-04-11T13:55:35.477Z,6.37
2019-04-11T13:58:52.606Z,6.20
2019-04-11T14:01:33.275Z,6.07
2019-04-11T14:04:25.923Z,6.13
2019-04-11T14:07:15.588Z,6.30
2019-04-11T14:09:56.475Z,6.53
2019-04-11T14:12:48.652Z,6.80
2019-04-11T14:15:54.259Z,6.23
2019-04-11T14:19:00.563Z,6.93
2019-04-11T14:22:28.980Z,6.43
2019-04-11T14:25:45.042Z,6.50
2019-04-11T14:32:09.935Z,6.97
2019-04-11T14:35:13.217Z,6.80
2019-04-11T14:38:06.988Z,6.57
2019-04-11T14:41:31.144Z,6.80
2019-04-11T14:44:16.004Z,6.83
2019-04-11T14:47:08.744Z,7.40
2019-04-11T14:53:28.778Z,7.13
2019-04-11T14:56:21.873Z,6.93
2019-04-11T14:59:25.695Z,7.83
2019-04-11T15:02:48.656Z,7.20
2019-04-11T15:06:00.000Z,8.37
2019-04-11T15:09:16.850Z,7.60
2019-04-11T15:12:32.541Z,8.07
2019-04-11T15:16:04.489Z,8.50
2019-04-11T15:19:02.289Z,7.70
2019-04-11T15:22:06.287Z,7.97
2019-04-11T15:25:08.562Z,7.93
2019-04-11T15:28:17.817Z,8.90
2019-04-11T15:31:10.994Z,8.93
2019-04-11T15:34:31.478Z,8.33
2019-04-11T15:37:49.065Z,8.93
2019-04-11T15:44:03.862Z,8.60
2019-04-11T15:46:55.731Z,8.80
2019-04-11T15:50:16.709Z,9.07
2019-04-11T15:53:06.728Z,8.50
2019-04-11T15:56:15.434Z,9.10
2019-04-11T15:59:29.353Z,8.80
2019-04-11T16:02:31.168Z,8.83
2019-04-11T16:05:34.973Z,9.00
2019-04-11T16:09:06.126Z,9.23
2019-04-11T16:11:56.735Z,9.57
2019-04-11T16:14:45.708Z,8.83
2019-04-11T16:17:49.419Z,9.97
2019-04-11T16:20:36.893Z,9.37
2019-04-11T16:23:38.467Z,9.47
2019-04-11T16:26:18.762Z,9.70
2019-04-11T16:29:12.703Z,8.83
2019-04-11T16:31:49.504Z,9.10
2019-04-11T16:37:47.656Z,9.00
2019-04-11T16:40:53.451Z,8.27
2019-04-11T16:43:25.080Z,8.70
2019-04-11T16:46:18.022Z,8.57
2019-04-11T16:48:49.017Z,8.23
2019-04-11T16:51:30.383Z,8.10
2019-04-11T16:53:52.836Z,8.30
2019-04-11T16:56:23.854Z,8.03
2019-04-11T16:58:54.902Z,8.00
2019-04-11T17:01:25.957Z,8.47
2019-04-11T17:03:57.082Z,7.77
2019-04-11T17:06:40.609Z,7.43
2019-04-11T17:09:20.011Z,7.50
2019-04-11T17:11:51.278Z,7.63
2019-04-11T17:14:28.126Z,8.03
2019-04-11T17:16:55.770Z,7.50
2019-04-11T17:19:26.551Z,7.20
2019-04-11T17:21:57.592Z,7.17
2019-04-11T17:24:28.612Z,7.37
2019-04-11T17:26:59.627Z,6.90
2019-04-11T17:29:30.573Z,7.03
2019-04-11T17:32:01.429Z,7.07
2019-04-11T17:34:32.938Z,6.33
2019-04-11T17:37:04.719Z,7.20
2019-04-11T17:39:36.779Z,7.40
2019-04-11T17:42:10.834Z,6.93
2019-04-11T17:44:42.038Z,7.30
2019-04-11T17:47:12.930Z,7.10
2019-04-11T17:49:43.711Z,7.27
2019-04-11T17:52:14.484Z,6.43
2019-04-11T17:54:45.528Z,7.23
2019-04-11T17:57:16.364Z,6.77
2019-04-11T17:59:48.766Z,6.93
2019-04-11T18:02:19.773Z,6.83
2019-04-11T18:04:50.557Z,6.93
2019-04-11T18:07:21.324Z,7.03
2019-04-11T18:09:55.796Z,7.30
2019-04-11T18:12:26.215Z,6.90
2019-04-11T18:14:59.816Z,6.97
2019-04-11T18:17:30.285Z,7.57
2019-04-11T18:20:01.541Z,6.70
2019-04-11T18:22:33.714Z,7.03
2019-04-11T18:25:04.838Z,7.17
2019-04-11T18:27:35.688Z,7.30
2019-04-11T18:30:09.619Z,6.77
2019-04-11T18:32:40.901Z,6.70
2019-04-11T18:35:12.516Z,6.90
2019-04-11T18:37:43.375Z,6.80
2019-04-11T18:40:14.908Z,6.80
2019-04-11T18:42:46.145Z,6.80
2019-04-11T18:45:17.624Z,6.77
2019-04-11T18:47:48.432Z,6.73
2019-04-11T18:50:22.743Z,7.13
2019-04-11T18:52:52.307Z,6.90
2019-04-11T18:55:23.426Z,6.70
2019-04-11T18:57:54.203Z,6.83
2019-04-11T19:00:26.618Z,6.77
2019-04-11T19:02:57.801Z,6.57
2019-04-11T19:05:29.361Z,6.60
2019-04-11T19:10:55.444Z,6.87
2019-04-11T19:13:26.725Z,6.87
2019-04-11T19:15:57.562Z,6.70
2019-04-11T19:18:28.380Z,6.60
2019-04-11T19:20:59.481Z,6.60
2019-04-11T19:23:30.581Z,7.17
2019-04-11T19:26:01.601Z,6.53
2019-04-11T19:28:32.623Z,6.27
2019-04-11T19:31:03.394Z,6.40
2019-04-11T19:33:34.807Z,6.80
2019-04-11T19:36:05.918Z,6.30
2019-04-11T19:38:37.461Z,6.30
2019-04-11T19:41:08.552Z,6.77
2019-04-11T19:43:40.890Z,6.67
2019-04-11T19:46:12.038Z,6.33
2019-04-11T19:48:43.306Z,6.80
2019-04-11T19:51:14.478Z,6.83
2019-04-11T19:53:45.329Z,6.70
2019-04-11T19:56:24.777Z,6.20
2019-04-11T19:58:55.688Z,6.93
2019-04-11T20:01:26.525Z,6.70
2019-04-11T20:03:57.312Z,6.97
2019-04-11T20:06:28.165Z,7.30
2019-04-11T20:08:59.224Z,7.00
2019-04-11T20:11:31.521Z,7.57
2019-04-11T20:14:03.124Z,7.57
2019-04-11T20:16:41.466Z,7.43
2019-04-11T20:19:07.567Z,7.20
2019-04-11T20:21:39.035Z,7.43
2019-04-11T20:24:14.122Z,7.50
2019-04-11T20:26:42.645Z,7.63
2019-04-11T20:29:13.691Z,7.70
2019-04-11T20:31:44.470Z,7.43
2019-04-11T20:34:26.792Z,7.80
2019-04-11T20:36:48.484Z,8.23
2019-04-11T20:39:19.274Z,8.20
2019-04-11T20:41:53.258Z,8.50
2019-04-11T20:44:27.170Z,9.23
2019-04-11T20:47:00.127Z,8.30
2019-04-11T20:49:28.333Z,8.93
2019-04-11T20:51:59.103Z,8.87
2019-04-11T20:54:29.877Z,9.07
2019-04-11T20:57:00.892Z,9.50
2019-04-11T20:59:34.742Z,8.63
2019-04-11T21:02:04.260Z,9.13
2019-04-11T21:04:35.149Z,9.70
2019-04-11T21:07:06.373Z,9.53
2019-04-11T21:09:37.386Z,9.23
2019-04-11T21:12:08.229Z,9.20
2019-04-11T21:14:40.114Z,9.50
2019-04-11T21:17:10.860Z,9.87
2019-04-11T21:19:41.750Z,9.53
2019-04-11T21:22:12.523Z,10.03
2019-04-11T21:24:43.825Z,10.17
2019-04-11T21:27:14.730Z,9.93
2019-04-11T21:29:45.578Z,9.87
2019-04-11T21:32:16.923Z,10.17
2019-04-11T21:34:47.791Z,10.03
2019-04-11T21:37:18.566Z,10.20
2019-04-11T21:39:49.357Z,10.40
2019-04-11T21:42:20.629Z,10.70
2019-04-11T21:44:51.763Z,10.33
2019-04-11T21:47:22.816Z,10.53
2019-04-11T21:49:53.616Z,10.57
2019-04-11T21:52:24.711Z,10.40
2019-04-11T21:54:55.795Z,10.40
2019-04-11T21:57:26.815Z,10.07
2019-04-11T21:59:57.713Z,10.73
2019-04-11T22:02:28.565Z,10.60
2019-04-11T22:04:59.482Z,10.40
2019-04-11T22:07:31.009Z,10.40
2019-04-11T22:10:06.981Z,10.20
2019-04-11T22:12:39.740Z,10.10
2019-04-11T22:15:11.736Z,10.93
2019-04-11T22:17:42.944Z,10.70
2019-04-11T22:20:16.382Z,10.50
2019-04-11T22:22:46.939Z,11.03
2019-04-11T22:25:18.135Z,10.53
2019-04-11T22:27:51.095Z,10.73
2019-04-11T22:30:25.014Z,10.53
2019-04-11T22:33:16.613Z,11.20
2019-04-11T22:35:47.737Z,10.57
2019-04-11T22:38:18.513Z,10.63
2019-04-11T22:40:49.585Z,11.40
2019-04-11T22:43:24.381Z,11.20
2019-04-11T22:45:53.706Z,10.93
2019-04-11T22:48:24.735Z,10.90
2019-04-11T22:50:56.092Z,11.83
2019-04-11T22:53:27.117Z,11.40
2019-04-11T22:55:58.163Z,11.23
2019-04-11T22:58:29.118Z,11.50
2019-04-11T23:01:01.161Z,11.77
2019-04-11T23:03:37.885Z,10.80
2019-04-11T23:06:08.920Z,11.37
2019-04-11T23:08:40.175Z,12.30
2019-04-11T23:11:11.418Z,12.10
2019-04-11T23:13:45.562Z,11.57
2019-04-11T23:16:15.200Z,11.33
2019-04-11T23:18:46.055Z,11.90
2019-04-11T23:21:16.919Z,12.20
2019-04-11T23:23:47.767Z,11.73
2019-04-11T23:26:18.554Z,11.93
2019-04-11T23:28:49.334Z,12.00
2019-04-11T23:31:21.132Z,11.57
2019-04-11T23:33:52.622Z,11.83
2019-04-11T23:36:23.906Z,12.10
2019-04-11T23:38:55.159Z,11.30
2019-04-11T23:41:26.196Z,11.70
2019-04-11T23:43:57.488Z,11.53
2019-04-11T23:46:28.994Z,11.60
2019-04-11T23:49:00.261Z,11.03
2019-04-11T23:51:31.530Z,12.10
2019-04-11T23:54:03.286Z,11.50
2019-04-11T23:56:34.090Z,11.33
2019-04-11T23:59:05.206Z,11.60
